KBGE/BGE METAR and TAF weather

Enter ICAO airport designator
Station Type Date Time Source
KBGE METAR 2021/09/24 11:15 UTC NOAA

KBGE 241115Z AUTO 35004KT 10SM CLR 13/12 A3006 RMK AO2 T01250117


Station Type Date Time Source
KBGE Decoded METAR 2021/09/24 11:15 UTC NOAA

Bainbridge, Decatur County Industrial Air Park Airport, GA, United States (KBGE) 30-58N 084-38W
Sep 24, 2021 - 07:15 AM EDT / 2021.09.24 1115 UTC
Wind: from the N (350 degrees) at 5 MPH (4 KT):0
Visibility: 10 mile(s):0
Sky conditions: clear
Temperature: 54.5 F (12.5 C)
Dew Point: 53.1 F (11.7 C)
Relative Humidity: 94%
Pressure (altimeter): 30.06 in. Hg (1017 hPa)
ob: KBGE 241115Z AUTO 35004KT 10SM CLR 13/12 A3006 RMK AO2 T01250117
cycle: 11

Station Type Date Time Source
KBGE TAF UTC NOAA

Error!

Example: see airport list